createdAt,value
2023-02-27T00:00:51.015Z,-0.93
2023-02-27T00:03:03.382Z,-0.94
2023-02-27T00:05:08.700Z,-0.96
2023-02-27T00:07:11.628Z,-0.98
2023-02-27T00:09:14.754Z,-1.00
2023-02-27T00:11:17.396Z,-1.01
2023-02-27T00:13:20.115Z,-1.02
2023-02-27T00:15:23.447Z,-1.01
2023-02-27T00:17:28.822Z,-1.00
2023-02-27T00:19:31.585Z,-0.97
2023-02-27T00:21:36.965Z,-0.93
2023-02-27T00:23:39.785Z,-0.90
2023-02-27T00:25:42.523Z,-0.89
2023-02-27T00:27:45.598Z,-0.86
2023-02-27T00:29:49.806Z,-0.83
2023-02-27T00:31:52.658Z,-0.86
2023-02-27T00:33:55.518Z,-0.88
2023-02-27T00:36:00.547Z,-0.93
2023-02-27T00:38:04.213Z,-0.96
2023-02-27T00:40:08.093Z,-0.98
2023-02-27T00:42:11.165Z,-1.02
2023-02-27T00:44:16.479Z,-1.05
2023-02-27T00:46:22.318Z,-1.07
2023-02-27T00:48:27.203Z,-1.06
2023-02-27T00:50:30.135Z,-1.04
2023-02-27T00:52:34.653Z,-1.06
2023-02-27T00:54:37.463Z,-1.09
2023-02-27T00:56:41.233Z,-1.09
2023-02-27T00:58:44.622Z,-1.08
2023-02-27T01:00:47.363Z,-1.08
2023-02-27T01:02:50.419Z,-1.12
2023-02-27T01:04:55.019Z,-1.17
2023-02-27T01:07:03.228Z,-1.19
2023-02-27T01:09:06.866Z,-1.23
2023-02-27T01:11:09.631Z,-1.24
2023-02-27T01:13:12.306Z,-1.23
2023-02-27T01:15:15.222Z,-1.23
2023-02-27T01:17:18.298Z,-1.23
2023-02-27T01:21:44.729Z,-1.23
2023-02-27T01:23:48.388Z,-1.22
2023-02-27T01:25:56.836Z,-1.21
2023-02-27T01:28:00.652Z,-1.22
2023-02-27T01:30:04.419Z,-1.24
2023-02-27T01:32:07.545Z,-1.24
2023-02-27T01:34:11.599Z,-1.20
2023-02-27T01:36:17.973Z,-1.16
2023-02-27T01:38:21.476Z,-1.13
2023-02-27T01:40:24.756Z,-1.10
2023-02-27T01:42:28.965Z,-1.09
2023-02-27T01:45:16.971Z,-1.10
2023-02-27T01:47:20.406Z,-1.10
2023-02-27T01:49:30.671Z,-1.09
2023-02-27T01:51:47.824Z,-1.07
2023-02-27T01:53:53.160Z,-1.05
2023-02-27T01:56:00.605Z,-1.04
2023-02-27T01:58:08.155Z,-1.08
2023-02-27T02:00:13.623Z,-1.09
2023-02-27T02:02:26.556Z,-1.09
2023-02-27T02:04:36.549Z,-1.08
2023-02-27T02:06:43.298Z,-1.07
2023-02-27T02:08:49.293Z,-1.05
2023-02-27T02:10:54.350Z,-1.03
2023-02-27T02:12:58.432Z,-1.01
2023-02-27T02:15:01.336Z,-1.01
2023-02-27T02:17:23.077Z,-1.04
2023-02-27T02:19:47.910Z,-1.08
2023-02-27T02:22:22.283Z,-1.10
2023-02-27T02:25:08.053Z,-1.06
2023-02-27T02:27:20.313Z,-1.03
2023-02-27T02:29:57.274Z,-1.01
2023-02-27T02:32:38.198Z,-1.00
2023-02-27T02:35:00.474Z,-1.05
2023-02-27T02:37:47.820Z,-1.10
2023-02-27T02:39:56.455Z,-1.12
2023-02-27T02:42:33.369Z,-1.13
2023-02-27T02:45:04.569Z,-1.11
2023-02-27T02:47:19.736Z,-1.11
2023-02-27T02:49:32.758Z,-1.12
2023-02-27T02:51:52.652Z,-1.14
2023-02-27T02:54:14.813Z,-1.18
2023-02-27T02:56:35.670Z,-1.23
2023-02-27T02:59:16.299Z,-1.27
2023-02-27T03:01:27.315Z,-1.31
2023-02-27T03:03:39.381Z,-1.38
2023-02-27T03:06:16.908Z,-1.47
2023-02-27T03:08:29.721Z,-1.55
2023-02-27T03:10:37.982Z,-1.56
2023-02-27T03:12:45.145Z,-1.58
2023-02-27T03:15:29.338Z,-1.60
2023-02-27T03:17:49.786Z,-1.64
2023-02-27T03:19:58.102Z,-1.63
2023-02-27T03:22:22.332Z,-1.64
2023-02-27T03:24:33.418Z,-1.65
2023-02-27T03:26:43.905Z,-1.68
2023-02-27T03:28:56.978Z,-1.69
2023-02-27T03:31:10.330Z,-1.69
2023-02-27T03:33:21.082Z,-1.70
2023-02-27T03:35:38.539Z,-1.69
2023-02-27T03:38:06.399Z,-1.68
2023-02-27T03:40:13.202Z,-1.70
2023-02-27T03:42:34.035Z,-1.70
2023-02-27T03:44:53.108Z,-1.67
2023-02-27T03:46:56.330Z,-1.62
2023-02-27T03:49:00.091Z,-1.59
2023-02-27T03:51:03.761Z,-1.57
2023-02-27T03:53:15.351Z,-1.53
2023-02-27T03:55:23.069Z,-1.50
2023-02-27T03:57:27.457Z,-1.47
2023-02-27T03:59:32.313Z,-1.47
2023-02-27T04:01:35.354Z,-1.47
2023-02-27T04:03:46.342Z,-1.50
2023-02-27T04:05:51.223Z,-1.53
2023-02-27T04:08:03.084Z,-1.55
2023-02-27T04:10:35.280Z,-1.58
2023-02-27T04:12:53.165Z,-1.57
2023-02-27T04:15:18.955Z,-1.60
2023-02-27T04:17:28.423Z,-1.67
2023-02-27T04:19:54.790Z,-1.73
2023-02-27T04:22:08.936Z,-1.80
2023-02-27T04:24:40.353Z,-1.83
2023-02-27T04:26:47.027Z,-1.87
2023-02-27T04:28:55.679Z,-1.91
2023-02-27T04:31:10.031Z,-1.92
2023-02-27T04:33:24.562Z,-1.94
2023-02-27T04:35:51.918Z,-1.98
2023-02-27T04:38:36.455Z,-1.99
2023-02-27T04:40:45.136Z,-1.96
2023-02-27T04:42:54.981Z,-1.96
2023-02-27T04:45:05.537Z,-1.95
2023-02-27T04:47:11.830Z,-1.98
2023-02-27T04:49:37.269Z,-2.02
2023-02-27T04:52:01.606Z,-2.07
2023-02-27T04:54:14.821Z,-2.09
2023-02-27T04:56:24.904Z,-2.12
2023-02-27T05:02:10.417Z,-2.15
2023-02-27T05:04:19.631Z,-2.17
2023-02-27T05:06:30.179Z,-2.16
2023-02-27T05:08:48.736Z,-2.16
2023-02-27T05:11:27.028Z,-2.16
2023-02-27T05:14:06.053Z,-2.21
2023-02-27T05:16:23.528Z,-2.27
2023-02-27T05:18:27.050Z,-2.29
2023-02-27T05:20:46.872Z,-2.32
2023-02-27T05:22:59.797Z,-2.37
2023-02-27T05:25:23.744Z,-2.39
2023-02-27T05:27:39.597Z,-2.37
2023-02-27T05:29:49.472Z,-2.31
2023-02-27T05:32:15.244Z,-2.28
2023-02-27T05:34:28.915Z,-2.24
2023-02-27T05:36:38.434Z,-2.23
2023-02-27T05:38:51.909Z,-2.20
2023-02-27T05:41:01.603Z,-2.15
2023-02-27T05:43:13.314Z,-2.11
2023-02-27T05:45:23.123Z,-2.06
2023-02-27T05:47:31.330Z,-2.05
2023-02-27T05:49:41.626Z,-2.11
2023-02-27T05:51:49.618Z,-2.19
2023-02-27T05:54:02.514Z,-2.22
2023-02-27T05:56:08.187Z,-2.24
2023-02-27T05:58:43.193Z,-2.25
2023-02-27T06:00:51.935Z,-2.27
2023-02-27T06:02:54.714Z,-2.28
2023-02-27T06:04:58.781Z,-2.28
2023-02-27T06:07:06.433Z,-2.31
2023-02-27T06:09:11.308Z,-2.34
2023-02-27T06:11:14.377Z,-2.35
2023-02-27T06:13:17.631Z,-2.35
2023-02-27T06:15:20.319Z,-2.37
2023-02-27T06:17:23.146Z,-2.38
2023-02-27T06:19:26.222Z,-2.39
2023-02-27T06:21:29.331Z,-2.39
2023-02-27T06:23:32.339Z,-2.42
2023-02-27T06:25:36.641Z,-2.45
2023-02-27T06:27:39.594Z,-2.46
2023-02-27T06:29:42.821Z,-2.45
2023-02-27T06:31:50.060Z,-2.44
2023-02-27T06:33:55.710Z,-2.47
2023-02-27T06:35:59.745Z,-2.47
2023-02-27T06:38:07.338Z,-2.44
2023-02-27T06:40:26.107Z,-2.36
2023-02-27T06:42:31.377Z,-2.30
2023-02-27T06:44:35.529Z,-2.25
2023-02-27T06:46:55.852Z,-2.18
2023-02-27T06:49:03.756Z,-2.13
2023-02-27T06:51:09.628Z,-2.09
2023-02-27T06:53:12.419Z,-2.05
2023-02-27T06:55:20.342Z,-1.99
2023-02-27T06:57:23.625Z,-1.91
2023-02-27T06:59:26.922Z,-1.88
2023-02-27T07:01:29.937Z,-1.86
2023-02-27T07:03:34.347Z,-1.83
2023-02-27T07:05:42.002Z,-1.81
2023-02-27T07:07:44.928Z,-1.83
2023-02-27T07:09:50.596Z,-1.84
2023-02-27T07:11:55.561Z,-1.84
2023-02-27T07:14:02.027Z,-1.82
2023-02-27T07:16:06.411Z,-1.81
2023-02-27T07:18:09.123Z,-1.80
2023-02-27T07:20:12.583Z,-1.79
2023-02-27T07:22:15.362Z,-1.78
2023-02-27T07:24:18.231Z,-1.76
2023-02-27T07:26:21.373Z,-1.74
2023-02-27T07:28:24.168Z,-1.72
2023-02-27T07:30:27.095Z,-1.71
2023-02-27T07:32:32.165Z,-1.67
2023-02-27T07:34:37.253Z,-1.60
2023-02-27T07:36:47.860Z,-1.51
2023-02-27T07:38:51.072Z,-1.41
2023-02-27T07:40:55.638Z,-1.32
2023-02-27T07:42:59.439Z,-1.23
2023-02-27T07:45:04.501Z,-1.15
2023-02-27T07:47:07.350Z,-1.09
2023-02-27T07:49:10.997Z,-1.02
2023-02-27T07:51:14.269Z,-0.96
2023-02-27T07:53:16.897Z,-0.90
2023-02-27T07:55:19.589Z,-0.84
2023-02-27T07:57:22.641Z,-0.79
2023-02-27T07:59:26.672Z,-0.76
2023-02-27T08:01:31.823Z,-0.72
2023-02-27T08:03:35.388Z,-0.68
2023-02-27T08:05:38.090Z,-0.62
2023-02-27T08:07:40.845Z,-0.58
2023-02-27T08:09:43.534Z,-0.53
2023-02-27T08:11:48.875Z,-0.52
2023-02-27T08:14:00.874Z,-0.52
2023-02-27T08:16:04.577Z,-0.47
2023-02-27T08:18:07.364Z,-0.47
2023-02-27T08:20:11.914Z,-0.44
2023-02-27T08:22:14.824Z,-0.40
2023-02-27T08:24:17.771Z,-0.38
2023-02-27T08:26:21.265Z,-0.36
2023-02-27T08:28:25.512Z,-0.34
2023-02-27T08:30:28.772Z,-0.32
2023-02-27T08:32:31.816Z,-0.29
2023-02-27T08:34:35.226Z,-0.30
2023-02-27T08:36:38.359Z,-0.28
2023-02-27T08:38:41.143Z,-0.26
2023-02-27T08:40:44.048Z,-0.23
2023-02-27T08:42:47.339Z,-0.21
2023-02-27T08:44:50.649Z,-0.20
2023-02-27T08:46:54.752Z,-0.18
2023-02-27T08:48:58.439Z,-0.15
2023-02-27T08:51:01.588Z,-0.12
2023-02-27T08:53:04.319Z,-0.08
2023-02-27T08:55:09.025Z,-0.03
2023-02-27T08:57:11.618Z,0.01
2023-02-27T08:59:15.520Z,0.05
2023-02-27T09:01:19.592Z,0.07
2023-02-27T09:03:22.505Z,0.06
2023-02-27T09:05:26.336Z,0.07
2023-02-27T09:07:29.082Z,0.10
2023-02-27T09:09:32.500Z,0.15
2023-02-27T09:11:36.888Z,0.13
2023-02-27T09:13:41.217Z,0.10
2023-02-27T09:15:49.287Z,0.07
2023-02-27T09:17:55.259Z,0.08
2023-02-27T09:19:58.975Z,0.05
2023-02-27T09:22:01.926Z,0.07
2023-02-27T09:24:18.778Z,0.05
2023-02-27T09:26:39.695Z,0.01
2023-02-27T09:28:45.839Z,0.01
2023-02-27T09:30:49.085Z,0.04
2023-02-27T09:32:52.653Z,0.08
2023-02-27T09:34:56.099Z,0.09
2023-02-27T09:37:01.138Z,0.13
2023-02-27T09:39:06.445Z,0.14
2023-02-27T09:41:33.301Z,0.15
2023-02-27T09:43:46.322Z,0.18
2023-02-27T09:45:56.199Z,0.21
2023-02-27T09:48:01.943Z,0.25
2023-02-27T09:50:40.125Z,0.30
2023-02-27T09:52:42.952Z,0.33
2023-02-27T09:54:45.690Z,0.33
2023-02-27T09:56:58.763Z,0.33
2023-02-27T09:59:28.720Z,0.34
2023-02-27T10:01:55.279Z,0.31
2023-02-27T10:04:19.202Z,0.30
2023-02-27T10:06:48.561Z,0.29
2023-02-27T10:09:02.735Z,0.31
2023-02-27T10:11:13.030Z,0.30
2023-02-27T10:14:13.633Z,0.30
2023-02-27T10:16:20.928Z,0.36
2023-02-27T10:18:30.836Z,0.41
2023-02-27T10:20:37.866Z,0.45
2023-02-27T10:22:43.700Z,0.50
2023-02-27T10:24:54.933Z,0.55
2023-02-27T10:27:00.918Z,0.63
2023-02-27T10:29:24.683Z,0.70
2023-02-27T10:31:34.026Z,0.77
2023-02-27T10:33:40.401Z,0.82
2023-02-27T10:35:45.074Z,0.88
2023-02-27T10:37:54.962Z,0.95
2023-02-27T10:40:05.616Z,1.01
2023-02-27T10:42:10.841Z,1.05
2023-02-27T10:44:16.104Z,1.11
2023-02-27T10:46:28.468Z,1.16
2023-02-27T10:48:34.549Z,1.21
2023-02-27T10:50:45.589Z,1.22
2023-02-27T10:52:58.138Z,1.25
2023-02-27T10:55:19.093Z,1.30
2023-02-27T10:57:41.360Z,1.35
2023-02-27T10:59:55.828Z,1.42
2023-02-27T11:02:00.481Z,1.47
2023-02-27T11:04:04.910Z,1.51
2023-02-27T11:06:23.605Z,1.57
2023-02-27T11:08:29.221Z,1.67
2023-02-27T11:10:31.940Z,1.74
2023-02-27T11:12:35.307Z,1.81
2023-02-27T11:14:50.046Z,1.86
2023-02-27T11:16:56.013Z,1.94
2023-02-27T11:19:00.393Z,2.00
2023-02-27T11:21:20.685Z,2.03
2023-02-27T11:23:30.502Z,2.07
2023-02-27T11:25:36.839Z,2.12
2023-02-27T11:27:40.743Z,2.16
2023-02-27T11:29:57.021Z,2.23
2023-02-27T11:32:14.069Z,2.29
2023-02-27T11:34:25.151Z,2.30
2023-02-27T11:36:47.073Z,2.34
2023-02-27T11:38:54.731Z,2.40
2023-02-27T11:41:03.619Z,2.45
2023-02-27T11:43:18.186Z,2.48
2023-02-27T11:46:09.457Z,2.52
2023-02-27T11:47:52.712Z,2.53
2023-02-27T11:50:01.393Z,2.55
2023-02-27T11:52:22.977Z,2.62
2023-02-27T11:54:43.377Z,2.67
2023-02-27T11:56:51.967Z,2.71
2023-02-27T11:59:14.600Z,2.74
2023-02-27T12:01:26.708Z,2.78
2023-02-27T12:03:35.451Z,2.80
2023-02-27T12:05:47.294Z,2.84
2023-02-27T12:07:56.327Z,2.88
2023-02-27T12:10:21.775Z,2.95
2023-02-27T12:12:37.348Z,3.06
2023-02-27T12:14:49.265Z,3.11
2023-02-27T12:17:22.553Z,3.14
2023-02-27T12:19:42.694Z,3.18
2023-02-27T12:21:54.429Z,3.25
2023-02-27T12:24:07.898Z,3.30
2023-02-27T12:26:22.491Z,3.36
2023-02-27T12:28:54.668Z,3.45
2023-02-27T12:31:12.012Z,3.51
2023-02-27T12:33:25.595Z,3.48
2023-02-27T12:35:33.148Z,3.37
2023-02-27T12:37:37.948Z,3.24
2023-02-27T12:39:44.698Z,3.17
2023-02-27T12:42:16.694Z,3.12
2023-02-27T12:44:38.055Z,3.13
2023-02-27T12:47:00.350Z,3.15
2023-02-27T12:49:22.122Z,3.16
2023-02-27T12:51:50.373Z,3.15
2023-02-27T12:54:31.412Z,3.12
2023-02-27T12:56:52.778Z,3.08
2023-02-27T12:59:08.086Z,3.07
2023-02-27T13:01:28.302Z,3.01
2023-02-27T13:03:56.318Z,2.96
2023-02-27T13:06:03.116Z,2.90
2023-02-27T13:08:16.367Z,2.89
2023-02-27T13:10:28.361Z,2.89
2023-02-27T13:12:37.521Z,2.86
2023-02-27T13:14:59.824Z,2.80
2023-02-27T13:17:17.547Z,2.77
2023-02-27T13:19:27.431Z,2.76
2023-02-27T13:21:33.071Z,2.76
2023-02-27T13:23:44.521Z,2.76
2023-02-27T13:25:50.947Z,2.75
2023-02-27T13:28:00.179Z,2.78
2023-02-27T13:30:14.333Z,2.83
2023-02-27T13:32:43.256Z,2.91
2023-02-27T13:34:53.407Z,3.03
2023-02-27T13:37:06.983Z,3.13
2023-02-27T13:39:45.917Z,3.20
2023-02-27T13:41:48.866Z,3.28
2023-02-27T13:43:53.523Z,3.30
2023-02-27T13:46:04.578Z,3.32
2023-02-27T13:48:35.554Z,3.32
2023-02-27T13:50:44.165Z,3.33
2023-02-27T13:52:47.799Z,3.36
2023-02-27T13:54:55.085Z,3.36
2023-02-27T13:57:00.025Z,3.36
2023-02-27T13:59:28.747Z,3.37
2023-02-27T14:01:37.853Z,3.37
2023-02-27T14:03:41.683Z,3.38
2023-02-27T14:05:47.059Z,3.33
2023-02-27T14:07:58.768Z,3.27
2023-02-27T14:10:08.923Z,3.25
2023-02-27T14:12:44.309Z,3.22
2023-02-27T14:14:50.523Z,3.15
2023-02-27T14:16:53.826Z,3.09
2023-02-27T14:18:59.551Z,3.07
2023-02-27T14:21:02.533Z,3.07
2023-02-27T14:23:14.943Z,3.06
2023-02-27T14:25:23.070Z,3.04
2023-02-27T14:27:29.134Z,3.03
2023-02-27T14:29:35.199Z,3.03
2023-02-27T14:31:40.754Z,3.03
2023-02-27T14:33:50.698Z,3.04
2023-02-27T14:35:59.377Z,3.05
2023-02-27T14:38:09.885Z,3.07
2023-02-27T14:41:02.505Z,3.06
2023-02-27T14:43:33.420Z,2.99
2023-02-27T14:45:40.050Z,2.96
2023-02-27T14:47:43.466Z,2.97
2023-02-27T14:49:47.754Z,3.00
2023-02-27T14:51:50.838Z,3.03
2023-02-27T14:54:05.318Z,3.06
2023-02-27T14:56:18.846Z,3.08
2023-02-27T14:58:22.222Z,3.05
2023-02-27T15:00:31.151Z,3.05
2023-02-27T15:02:36.105Z,3.06
2023-02-27T15:04:39.134Z,3.07
2023-02-27T15:06:45.643Z,3.08
2023-02-27T15:08:53.688Z,3.09
2023-02-27T15:10:58.605Z,3.13
2023-02-27T15:13:02.730Z,3.16
2023-02-27T15:15:10.371Z,3.18
2023-02-27T15:17:22.736Z,3.19
2023-02-27T15:19:30.224Z,3.17
2023-02-27T15:21:38.925Z,3.15
2023-02-27T15:23:41.744Z,3.13
2023-02-27T15:25:44.944Z,3.13
2023-02-27T15:27:47.773Z,3.14
2023-02-27T15:29:54.952Z,3.17
2023-02-27T15:31:57.805Z,3.17
2023-02-27T15:34:01.936Z,3.18
2023-02-27T15:36:05.600Z,3.16
2023-02-27T15:38:24.504Z,3.13
2023-02-27T15:40:31.539Z,3.10
2023-02-27T15:42:37.362Z,3.09
2023-02-27T15:44:44.217Z,3.08
2023-02-27T15:46:47.880Z,3.06
2023-02-27T15:48:52.574Z,3.06
2023-02-27T15:51:02.433Z,3.05
2023-02-27T15:53:12.221Z,3.04
2023-02-27T15:55:22.213Z,3.03
2023-02-27T15:57:27.438Z,2.97
2023-02-27T15:59:34.111Z,2.91
2023-02-27T16:01:38.479Z,2.83
2023-02-27T16:03:47.101Z,2.77
2023-02-27T16:05:53.235Z,2.72
2023-02-27T16:07:56.693Z,2.64
2023-02-27T16:10:08.356Z,2.61
2023-02-27T16:12:33.453Z,2.60
2023-02-27T16:14:44.878Z,2.61
2023-02-27T16:16:57.038Z,2.64
2023-02-27T16:19:03.412Z,2.61
2023-02-27T16:21:15.222Z,2.59
2023-02-27T16:23:23.468Z,2.61
2023-02-27T16:25:26.295Z,2.64
2023-02-27T16:27:32.846Z,2.65
2023-02-27T16:29:43.016Z,2.65
2023-02-27T16:31:52.533Z,2.63
2023-02-27T16:34:00.959Z,2.60
2023-02-27T16:36:17.606Z,2.61
2023-02-27T16:38:21.120Z,2.60
2023-02-27T16:40:27.287Z,2.59
2023-02-27T16:42:31.219Z,2.57
2023-02-27T16:44:35.789Z,2.54
2023-02-27T16:46:38.801Z,2.48
2023-02-27T16:48:44.457Z,2.40
2023-02-27T16:50:47.379Z,2.35
2023-02-27T16:52:50.853Z,2.31
2023-02-27T16:54:54.299Z,2.27
2023-02-27T16:56:57.229Z,2.23
2023-02-27T16:59:02.343Z,2.17
2023-02-27T17:01:05.666Z,2.13
2023-02-27T17:03:10.350Z,2.09
2023-02-27T17:05:17.784Z,2.06
2023-02-27T17:07:22.634Z,2.05
2023-02-27T17:09:27.383Z,2.02
2023-02-27T17:11:30.309Z,1.98
2023-02-27T17:13:33.829Z,1.92
2023-02-27T17:15:37.661Z,1.91
2023-02-27T17:17:41.139Z,1.89
2023-02-27T17:19:45.193Z,1.86
2023-02-27T17:21:48.805Z,1.84
2023-02-27T17:23:51.834Z,1.83
2023-02-27T17:25:56.213Z,1.83
2023-02-27T17:27:59.034Z,1.81
2023-02-27T17:30:04.145Z,1.81
2023-02-27T17:32:07.005Z,1.80
2023-02-27T17:34:12.875Z,1.78
2023-02-27T17:36:16.002Z,1.79
2023-02-27T17:38:18.794Z,1.77
2023-02-27T17:40:22.670Z,1.76
2023-02-27T17:42:26.098Z,1.75
2023-02-27T17:44:29.483Z,1.73
2023-02-27T17:46:32.983Z,1.69
2023-02-27T17:48:38.190Z,1.66
2023-02-27T17:50:44.081Z,1.63
2023-02-27T17:52:48.110Z,1.60
2023-02-27T17:54:52.917Z,1.59
2023-02-27T17:56:55.920Z,1.60
2023-02-27T17:59:00.977Z,1.56
2023-02-27T18:01:11.740Z,1.53
2023-02-27T18:03:16.883Z,1.51
2023-02-27T18:05:20.166Z,1.49
2023-02-27T18:07:24.367Z,1.44
2023-02-27T18:09:27.244Z,1.42
2023-02-27T18:11:32.793Z,1.38
2023-02-27T18:13:38.151Z,1.35
2023-02-27T18:15:43.290Z,1.32
2023-02-27T18:17:47.806Z,1.28
2023-02-27T18:19:51.287Z,1.24
2023-02-27T18:21:56.026Z,1.21
2023-02-27T18:24:00.912Z,1.19
2023-02-27T18:26:07.161Z,1.20
2023-02-27T18:28:11.592Z,1.20
2023-02-27T18:30:17.827Z,1.18
2023-02-27T18:32:22.007Z,1.14
2023-02-27T18:34:27.086Z,1.09
2023-02-27T18:36:32.212Z,1.05
2023-02-27T18:38:39.230Z,1.03
2023-02-27T18:40:43.811Z,0.99
2023-02-27T18:42:52.434Z,0.93
2023-02-27T18:44:55.715Z,0.90
2023-02-27T18:46:58.884Z,0.86
2023-02-27T18:49:02.344Z,0.85
2023-02-27T18:51:11.302Z,0.83
2023-02-27T18:53:15.148Z,0.84
2023-02-27T18:55:19.110Z,0.82
2023-02-27T18:57:23.756Z,0.81
2023-02-27T18:59:27.950Z,0.81
2023-02-27T19:01:37.390Z,0.82
2023-02-27T19:03:42.664Z,0.82
2023-02-27T19:05:46.309Z,0.83
2023-02-27T19:07:49.664Z,0.83
2023-02-27T19:09:55.051Z,0.85
2023-02-27T19:12:01.256Z,0.87
2023-02-27T19:14:16.717Z,0.90
2023-02-27T19:16:20.386Z,0.92
2023-02-27T19:18:28.047Z,0.93
2023-02-27T19:20:32.082Z,0.93
2023-02-27T19:22:36.271Z,0.93
2023-02-27T19:24:41.620Z,0.93
2023-02-27T19:26:48.112Z,0.94
2023-02-27T19:28:53.808Z,0.97
2023-02-27T19:30:59.004Z,1.00
2023-02-27T19:33:02.779Z,1.01
2023-02-27T19:35:06.853Z,1.03
2023-02-27T19:37:10.510Z,1.01
2023-02-27T19:39:14.423Z,1.00
2023-02-27T19:41:19.508Z,1.01
2023-02-27T19:43:23.165Z,1.03
2023-02-27T19:45:26.733Z,1.02
2023-02-27T19:47:30.149Z,1.02
2023-02-27T19:49:34.737Z,1.01
2023-02-27T19:51:38.902Z,1.02
2023-02-27T19:53:46.010Z,1.04
2023-02-27T19:56:02.025Z,1.04
2023-02-27T19:58:10.063Z,0.98
2023-02-27T20:00:14.666Z,0.94
2023-02-27T20:02:19.770Z,0.89
2023-02-27T20:04:23.641Z,0.88
2023-02-27T20:06:33.183Z,0.84
2023-02-27T20:08:36.708Z,0.81
2023-02-27T20:10:41.894Z,0.78
2023-02-27T20:12:48.548Z,0.73
2023-02-27T20:14:56.218Z,0.73
2023-02-27T20:17:01.526Z,0.71
2023-02-27T20:19:07.218Z,0.71
2023-02-27T20:21:16.313Z,0.69
2023-02-27T20:23:23.384Z,0.66
2023-02-27T20:25:29.554Z,0.64
2023-02-27T20:27:35.625Z,0.61
2023-02-27T20:29:39.319Z,0.57
2023-02-27T20:31:46.248Z,0.54
2023-02-27T20:33:51.285Z,0.52
2023-02-27T20:35:56.122Z,0.51
2023-02-27T20:38:01.051Z,0.53
2023-02-27T20:40:05.372Z,0.55
2023-02-27T20:42:11.966Z,0.54
2023-02-27T20:44:18.282Z,0.51
2023-02-27T20:46:28.168Z,0.50
2023-02-27T20:48:32.989Z,0.49
2023-02-27T20:50:38.001Z,0.51
2023-02-27T20:52:45.181Z,0.53
2023-02-27T20:54:48.567Z,0.53
2023-02-27T20:56:54.592Z,0.49
2023-02-27T20:58:59.808Z,0.46
2023-02-27T21:01:09.289Z,0.41
2023-02-27T21:03:13.942Z,0.37
2023-02-27T21:05:17.629Z,0.31
2023-02-27T21:07:21.768Z,0.28
2023-02-27T21:09:26.867Z,0.25
2023-02-27T21:11:33.227Z,0.21
2023-02-27T21:13:37.264Z,0.19
2023-02-27T21:15:40.937Z,0.16
2023-02-27T21:17:46.074Z,0.13
2023-02-27T21:19:48.988Z,0.09
2023-02-27T21:21:53.669Z,0.09
2023-02-27T21:23:58.085Z,0.07
2023-02-27T21:26:05.088Z,0.05
2023-02-27T21:28:08.694Z,0.05
2023-02-27T21:30:12.207Z,0.05
2023-02-27T21:32:15.064Z,0.02
2023-02-27T21:34:22.269Z,0.01
2023-02-27T21:36:29.706Z,0.01
2023-02-27T21:38:33.693Z,0.03
2023-02-27T21:40:37.648Z,0.03
2023-02-27T21:42:44.272Z,0.03
2023-02-27T21:44:49.684Z,0.04
2023-02-27T21:46:55.339Z,0.04
2023-02-27T21:49:00.109Z,0.04
2023-02-27T21:51:06.814Z,0.01
2023-02-27T21:53:14.030Z,0.02
2023-02-27T21:55:17.384Z,0.04
2023-02-27T21:57:21.977Z,0.05
2023-02-27T21:59:26.307Z,0.05
2023-02-27T22:01:31.277Z,0.05
2023-02-27T22:03:34.853Z,0.03
2023-02-27T22:05:42.226Z,0.02
2023-02-27T22:07:45.359Z,0.01
2023-02-27T22:09:50.286Z,-0.02
2023-02-27T22:11:53.636Z,-0.07
2023-02-27T22:13:56.674Z,-0.11
2023-02-27T22:16:07.877Z,-0.09
2023-02-27T22:18:11.187Z,-0.10
2023-02-27T22:20:13.835Z,-0.11
2023-02-27T22:22:18.572Z,-0.10
2023-02-27T22:24:22.467Z,-0.10
2023-02-27T22:26:28.202Z,-0.07
2023-02-27T22:28:33.003Z,-0.05
2023-02-27T22:30:36.219Z,-0.07
2023-02-27T22:32:40.697Z,-0.07
2023-02-27T22:34:43.874Z,-0.09
2023-02-27T22:36:48.814Z,-0.13
2023-02-27T22:38:52.901Z,-0.18
2023-02-27T22:40:58.701Z,-0.21
2023-02-27T22:43:05.397Z,-0.24
2023-02-27T22:45:10.214Z,-0.22
2023-02-27T22:47:14.735Z,-0.18
2023-02-27T22:49:22.609Z,-0.20
2023-02-27T22:51:28.678Z,-0.25
2023-02-27T22:53:38.451Z,-0.28
2023-02-27T22:55:41.085Z,-0.29
2023-02-27T22:57:49.885Z,-0.30
2023-02-27T22:59:53.478Z,-0.28
2023-02-27T23:01:56.680Z,-0.24
2023-02-27T23:04:02.097Z,-0.23
2023-02-27T23:06:11.133Z,-0.23
2023-02-27T23:08:16.877Z,-0.25
2023-02-27T23:10:23.967Z,-0.27
2023-02-27T23:12:28.716Z,-0.30
2023-02-27T23:14:31.859Z,-0.29
2023-02-27T23:16:38.006Z,-0.28
2023-02-27T23:18:43.512Z,-0.34
2023-02-27T23:20:46.847Z,-0.41
2023-02-27T23:22:52.280Z,-0.45
2023-02-27T23:24:56.341Z,-0.48
2023-02-27T23:27:00.351Z,-0.53
2023-02-27T23:29:04.875Z,-0.56
2023-02-27T23:31:09.848Z,-0.59
2023-02-27T23:33:12.772Z,-0.63
2023-02-27T23:35:17.258Z,-0.67
2023-02-27T23:37:20.957Z,-0.70
2023-02-27T23:39:24.181Z,-0.73
2023-02-27T23:41:28.195Z,-0.74
2023-02-27T23:43:31.522Z,-0.79
2023-02-27T23:45:34.777Z,-0.81
2023-02-27T23:47:52.163Z,-0.80
2023-02-27T23:49:55.612Z,-0.82
2023-02-27T23:51:58.741Z,-0.88
2023-02-27T23:54:02.035Z,-0.91
2023-02-27T23:56:16.766Z,-0.90
2023-02-27T23:58:19.908Z,-0.86
